South Euclid, Ohio
Current Conditions -  °F | °C
As of 3:45 PM on Friday 19 Dec 2014 (Local Time) from KCGF Reporting Station
Overcast Overcast  
Wind Chill: 25°   Ceiling: 2000
Heat Index: 32°   Visibility: 15mi
Dew Point: 23°   Wind: 8mph
Humidity: 69%   Direction: 340°NNW
Pressure: 30.25"   Gusts: NA
Location:  41.5271°N, 81.5319°W
Report Text: KCGF 192045Z 34007KT 15SM OVC020 00/M05 A3025
Loading
Personal Weather Stations






























Interactive Weather Map New forecast layout! Learn more

10-Day Weather Forecast

Advertisements
Track Severe Weather on mobile